createdAt,value
2022-10-23T00:00:24.860Z,1010.58
2022-10-23T00:01:24.950Z,1010.57
2022-10-23T00:02:25.143Z,1010.58
2022-10-23T00:03:25.267Z,1010.55
2022-10-23T00:04:25.433Z,1010.53
2022-10-23T00:05:25.595Z,1010.54
2022-10-23T00:06:25.748Z,1010.56
2022-10-23T00:07:25.935Z,1010.57
2022-10-23T00:08:26.075Z,1010.57
2022-10-23T00:09:26.221Z,1010.59
2022-10-23T00:10:26.384Z,1010.62
2022-10-23T00:11:26.542Z,1010.62
2022-10-23T00:12:26.706Z,1010.58
2022-10-23T00:13:26.854Z,1010.59
2022-10-23T00:14:27.013Z,1010.63
2022-10-23T00:15:27.179Z,1010.61
2022-10-23T00:16:27.392Z,1010.64
2022-10-23T00:17:27.535Z,1010.65
2022-10-23T00:18:27.695Z,1010.64
2022-10-23T00:19:27.833Z,1010.70
2022-10-23T00:20:28.013Z,1010.73
2022-10-23T00:21:28.163Z,1010.70
2022-10-23T00:22:28.310Z,1010.73
2022-10-23T00:23:28.473Z,1010.76
2022-10-23T00:24:28.632Z,1010.78
2022-10-23T00:25:28.803Z,1010.78
2022-10-23T00:26:28.970Z,1010.78
2022-10-23T00:27:29.114Z,1010.77
2022-10-23T00:28:29.264Z,1010.79
2022-10-23T00:29:29.422Z,1010.81
2022-10-23T00:30:29.590Z,1010.81
2022-10-23T00:31:29.744Z,1010.80
2022-10-23T00:32:29.892Z,1010.82
2022-10-23T00:33:30.047Z,1010.82
2022-10-23T00:34:30.192Z,1010.84
2022-10-23T00:35:30.362Z,1010.81
2022-10-23T00:36:30.511Z,1010.80
2022-10-23T00:37:30.663Z,1010.78
2022-10-23T00:38:30.821Z,1010.80
2022-10-23T00:39:30.976Z,1010.84
2022-10-23T00:40:31.149Z,1010.82
2022-10-23T00:41:31.300Z,1010.80
2022-10-23T00:42:31.445Z,1010.77
2022-10-23T00:43:31.591Z,1010.79
2022-10-23T00:44:31.733Z,1010.74
2022-10-23T00:45:31.904Z,1010.78
2022-10-23T00:46:32.060Z,1010.78
2022-10-23T00:47:32.208Z,1010.77
2022-10-23T00:48:32.358Z,1010.74
2022-10-23T00:49:34.417Z,1010.75
2022-10-23T00:50:32.689Z,1010.78
2022-10-23T00:51:32.834Z,1010.77
2022-10-23T00:52:32.986Z,1010.78
2022-10-23T00:53:33.133Z,1010.80
2022-10-23T00:54:33.278Z,1010.77
2022-10-23T00:55:33.448Z,1010.78
2022-10-23T00:56:33.596Z,1010.80
2022-10-23T00:57:33.733Z,1010.82
2022-10-23T00:58:33.883Z,1010.77
2022-10-23T00:59:34.027Z,1010.79
2022-10-23T01:00:34.217Z,1010.85
2022-10-23T01:01:34.461Z,1010.81
2022-10-23T01:02:34.611Z,1010.74
2022-10-23T01:03:34.684Z,1010.76
2022-10-23T01:04:34.836Z,1010.79
2022-10-23T01:05:35.039Z,1010.77
2022-10-23T01:06:35.171Z,1010.75
2022-10-23T01:07:35.307Z,1010.75
2022-10-23T01:08:35.456Z,1010.76
2022-10-23T01:09:35.605Z,1010.80
2022-10-23T01:10:35.764Z,1010.83
2022-10-23T01:11:35.910Z,1010.84
2022-10-23T01:12:36.056Z,1010.81
2022-10-23T01:13:36.192Z,1010.84
2022-10-23T01:14:36.338Z,1010.81
2022-10-23T01:15:36.496Z,1010.83
2022-10-23T01:16:36.644Z,1010.82
2022-10-23T01:17:39.600Z,1010.83
2022-10-23T01:18:37.912Z,1010.87
2022-10-23T01:19:37.065Z,1010.86
2022-10-23T01:20:37.233Z,1010.84
2022-10-23T01:21:37.378Z,1010.84
2022-10-23T01:22:37.527Z,1010.85
2022-10-23T01:23:37.668Z,1010.85
2022-10-23T01:24:37.825Z,1010.85
2022-10-23T01:25:37.996Z,1010.87
2022-10-23T01:26:38.143Z,1010.84
2022-10-23T01:27:38.294Z,1010.83
2022-10-23T01:28:38.442Z,1010.87
2022-10-23T01:29:38.602Z,1010.87
2022-10-23T01:30:38.793Z,1010.86
2022-10-23T01:31:38.944Z,1010.92
2022-10-23T01:32:39.258Z,1010.92
2022-10-23T01:33:39.200Z,1010.92
2022-10-23T01:34:39.344Z,1010.90
2022-10-23T01:35:39.635Z,1010.90
2022-10-23T01:36:39.679Z,1010.92
2022-10-23T01:37:39.827Z,1010.90
2022-10-23T01:38:39.987Z,1010.93
2022-10-23T01:39:40.149Z,1010.91
2022-10-23T01:40:40.311Z,1010.92
2022-10-23T01:41:40.460Z,1010.96
2022-10-23T01:42:41.082Z,1010.91
2022-10-23T01:43:40.800Z,1010.90
2022-10-23T01:44:40.970Z,1010.96
2022-10-23T01:45:41.138Z,1010.96
2022-10-23T01:46:41.294Z,1010.99
2022-10-23T01:47:41.829Z,1011.00
2022-10-23T01:48:41.603Z,1010.99
2022-10-23T01:49:41.756Z,1010.98
2022-10-23T01:50:41.919Z,1011.00
2022-10-23T01:51:42.069Z,1010.95
2022-10-23T01:52:42.218Z,1010.91
2022-10-23T01:53:42.383Z,1010.92
2022-10-23T01:54:42.539Z,1010.95
2022-10-23T01:56:42.798Z,1010.88
2022-10-23T01:57:43.100Z,1010.88
2022-10-23T01:58:43.092Z,1010.88
2022-10-23T01:59:43.243Z,1010.91
2022-10-23T02:00:43.426Z,1010.93
2022-10-23T02:01:43.691Z,1010.90
2022-10-23T02:02:43.746Z,1010.93
2022-10-23T02:03:43.902Z,1010.93
2022-10-23T02:04:44.063Z,1010.92
2022-10-23T02:05:44.235Z,1010.85
2022-10-23T02:06:44.404Z,1010.89
2022-10-23T02:07:44.836Z,1010.89
2022-10-23T02:08:44.747Z,1010.84
2022-10-23T02:09:44.905Z,1010.84
2022-10-23T02:10:45.076Z,1010.87
2022-10-23T02:11:45.224Z,1010.85
2022-10-23T02:12:45.374Z,1010.86
2022-10-23T02:13:45.521Z,1010.86
2022-10-23T02:14:45.676Z,1010.86
2022-10-23T02:15:45.854Z,1010.87
2022-10-23T02:16:46.012Z,1010.84
2022-10-23T02:17:46.156Z,1010.88
2022-10-23T02:18:46.304Z,1010.86
2022-10-23T02:19:46.452Z,1010.83
2022-10-23T02:20:46.618Z,1010.86
2022-10-23T02:21:46.777Z,1010.86
2022-10-23T02:22:46.933Z,1010.86
2022-10-23T02:23:47.089Z,1010.85
2022-10-23T02:24:47.258Z,1010.87
2022-10-23T02:25:47.418Z,1010.84
2022-10-23T02:26:47.561Z,1010.85
2022-10-23T02:27:47.724Z,1010.81
2022-10-23T02:28:47.882Z,1010.80
2022-10-23T02:29:48.042Z,1010.80
2022-10-23T02:30:48.209Z,1010.82
2022-10-23T02:31:48.361Z,1010.81
2022-10-23T02:32:48.517Z,1010.78
2022-10-23T02:33:48.690Z,1010.79
2022-10-23T02:34:48.851Z,1010.78
2022-10-23T02:35:49.025Z,1010.78
2022-10-23T02:36:49.186Z,1010.76
2022-10-23T02:37:49.329Z,1010.78
2022-10-23T02:38:49.492Z,1010.76
2022-10-23T02:39:49.637Z,1010.77
2022-10-23T02:40:49.803Z,1010.77
2022-10-23T02:41:49.962Z,1010.80
2022-10-23T02:42:50.118Z,1010.77
2022-10-23T02:43:50.290Z,1010.77
2022-10-23T02:44:50.458Z,1010.74
2022-10-23T02:45:50.630Z,1010.75
2022-10-23T02:46:50.771Z,1010.73
2022-10-23T02:47:50.928Z,1010.73
2022-10-23T02:48:51.080Z,1010.73
2022-10-23T02:49:51.239Z,1010.73
2022-10-23T02:50:51.399Z,1010.72
2022-10-23T02:51:51.550Z,1010.72
2022-10-23T02:52:51.708Z,1010.74
2022-10-23T02:53:51.905Z,1010.74
2022-10-23T02:54:51.964Z,1010.77
2022-10-23T02:55:52.144Z,1010.79
2022-10-23T02:56:52.297Z,1010.78
2022-10-23T02:57:52.455Z,1010.79
2022-10-23T02:58:52.610Z,1010.80
2022-10-23T02:59:52.759Z,1010.77
2022-10-23T03:00:52.924Z,1010.78
2022-10-23T03:01:53.187Z,1010.75
2022-10-23T03:02:53.229Z,1010.77
2022-10-23T03:03:53.383Z,1010.73
2022-10-23T03:04:53.533Z,1010.69
2022-10-23T03:05:53.697Z,1010.72
2022-10-23T03:06:53.841Z,1010.70
2022-10-23T03:07:53.997Z,1010.70
2022-10-23T03:08:54.150Z,1010.75
2022-10-23T03:09:54.317Z,1010.73
2022-10-23T03:10:54.483Z,1010.75
2022-10-23T03:11:54.638Z,1010.70
2022-10-23T03:12:54.777Z,1010.69
2022-10-23T03:13:54.932Z,1010.67
2022-10-23T03:14:55.077Z,1010.62
2022-10-23T03:15:55.346Z,1010.66
2022-10-23T03:16:55.372Z,1010.67
2022-10-23T03:17:55.520Z,1010.67
2022-10-23T03:18:55.681Z,1010.70
2022-10-23T03:19:55.826Z,1010.68
2022-10-23T03:20:55.991Z,1010.69
2022-10-23T03:21:56.105Z,1010.70
2022-10-23T03:22:56.259Z,1010.72
2022-10-23T03:23:56.412Z,1010.73
2022-10-23T03:24:56.566Z,1010.70
2022-10-23T03:25:56.742Z,1010.74
2022-10-23T03:26:56.893Z,1010.76
2022-10-23T03:27:57.042Z,1010.76
2022-10-23T03:28:57.193Z,1010.75
2022-10-23T03:29:57.354Z,1010.79
2022-10-23T03:30:57.521Z,1010.77
2022-10-23T03:31:57.668Z,1010.83
2022-10-23T03:32:57.812Z,1010.81
2022-10-23T03:33:57.962Z,1010.79
2022-10-23T03:34:58.127Z,1010.76
2022-10-23T03:35:58.299Z,1010.76
2022-10-23T03:36:58.440Z,1010.74
2022-10-23T03:37:58.586Z,1010.76
2022-10-23T03:38:58.731Z,1010.74
2022-10-23T03:39:58.883Z,1010.77
2022-10-23T03:40:59.043Z,1010.76
2022-10-23T03:41:59.212Z,1010.80
2022-10-23T03:42:59.371Z,1010.83
2022-10-23T03:43:59.591Z,1010.78
2022-10-23T03:44:59.626Z,1010.81
2022-10-23T03:45:59.797Z,1010.83
2022-10-23T03:46:59.944Z,1010.83
2022-10-23T03:48:00.107Z,1010.82
2022-10-23T03:49:00.265Z,1010.84
2022-10-23T03:50:00.430Z,1010.84
2022-10-23T03:51:00.609Z,1010.87
2022-10-23T03:52:00.759Z,1010.84
2022-10-23T03:53:00.919Z,1010.87
2022-10-23T03:54:01.081Z,1010.88
2022-10-23T03:55:01.233Z,1010.86
2022-10-23T03:56:01.408Z,1010.86
2022-10-23T03:57:01.564Z,1010.90
2022-10-23T03:58:01.720Z,1010.86
2022-10-23T03:59:01.877Z,1010.88
2022-10-23T04:00:02.038Z,1010.86
2022-10-23T04:01:02.288Z,1010.83
2022-10-23T04:02:02.476Z,1010.83
2022-10-23T04:03:02.466Z,1010.86
2022-10-23T04:04:02.638Z,1010.84
2022-10-23T04:05:02.809Z,1010.87
2022-10-23T04:06:03.010Z,1010.85
2022-10-23T04:07:03.177Z,1010.86
2022-10-23T04:08:03.326Z,1010.84
2022-10-23T04:09:03.514Z,1010.85
2022-10-23T04:10:03.681Z,1010.89
2022-10-23T04:11:03.855Z,1010.88
2022-10-23T04:12:04.015Z,1010.83
2022-10-23T04:13:04.180Z,1010.82
2022-10-23T04:14:04.364Z,1010.85
2022-10-23T04:15:04.521Z,1010.87
2022-10-23T04:16:04.702Z,1010.87
2022-10-23T04:17:04.867Z,1010.84
2022-10-23T04:18:05.037Z,1010.81
2022-10-23T04:19:05.192Z,1010.79
2022-10-23T04:20:05.363Z,1010.78
2022-10-23T04:21:05.543Z,1010.74
2022-10-23T04:22:05.694Z,1010.77
2022-10-23T04:23:05.863Z,1010.82
2022-10-23T04:24:06.023Z,1010.78
2022-10-23T04:25:06.185Z,1010.73
2022-10-23T04:26:06.382Z,1010.79
2022-10-23T04:27:06.540Z,1010.78
2022-10-23T04:28:06.703Z,1010.79
2022-10-23T04:29:06.856Z,1010.76
2022-10-23T04:30:07.026Z,1010.75
2022-10-23T04:31:07.209Z,1010.75
2022-10-23T04:32:07.584Z,1010.74
2022-10-23T04:33:07.521Z,1010.73
2022-10-23T04:34:07.698Z,1010.71
2022-10-23T04:35:07.854Z,1010.73
2022-10-23T04:36:08.024Z,1010.71
2022-10-23T04:37:08.182Z,1010.78
2022-10-23T04:38:09.591Z,1010.76
2022-10-23T04:39:08.534Z,1010.81
2022-10-23T04:40:08.701Z,1010.81
2022-10-23T04:41:08.878Z,1010.78
2022-10-23T04:42:09.034Z,1010.82
2022-10-23T04:43:09.200Z,1010.81
2022-10-23T04:44:09.364Z,1010.87
2022-10-23T04:45:09.513Z,1010.86
2022-10-23T04:46:09.696Z,1010.84
2022-10-23T04:47:09.849Z,1010.85
2022-10-23T04:48:09.998Z,1010.84
2022-10-23T04:49:10.161Z,1010.84
2022-10-23T04:50:10.325Z,1010.78
2022-10-23T04:51:10.499Z,1010.82
2022-10-23T04:52:10.671Z,1010.85
2022-10-23T04:53:10.830Z,1010.84
2022-10-23T04:54:10.988Z,1010.80
2022-10-23T04:55:11.149Z,1010.83
2022-10-23T04:56:11.327Z,1010.83
2022-10-23T04:57:11.481Z,1010.84
2022-10-23T04:58:11.645Z,1010.84
2022-10-23T04:59:11.803Z,1010.80
2022-10-23T05:00:11.967Z,1010.88
2022-10-23T05:01:12.208Z,1010.90
2022-10-23T05:02:12.316Z,1010.90
2022-10-23T05:03:12.466Z,1010.90
2022-10-23T05:04:12.631Z,1010.88
2022-10-23T05:05:12.787Z,1010.90
2022-10-23T05:06:12.960Z,1010.91
2022-10-23T05:07:13.196Z,1010.87
2022-10-23T05:08:15.676Z,1010.85
2022-10-23T05:09:13.392Z,1010.80
2022-10-23T05:10:13.530Z,1010.78
2022-10-23T05:11:13.682Z,1010.83
2022-10-23T05:12:13.846Z,1010.80
2022-10-23T05:13:13.972Z,1010.80
2022-10-23T05:14:15.567Z,1010.80
2022-10-23T05:15:14.314Z,1010.81
2022-10-23T05:16:14.478Z,1010.81
2022-10-23T05:17:14.592Z,1010.79
2022-10-23T05:18:14.738Z,1010.77
2022-10-23T05:19:14.873Z,1010.82
2022-10-23T05:20:15.002Z,1010.78
2022-10-23T05:21:15.164Z,1010.79
2022-10-23T05:22:15.297Z,1010.79
2022-10-23T05:23:15.441Z,1010.80
2022-10-23T05:24:15.583Z,1010.84
2022-10-23T05:25:15.727Z,1010.85
2022-10-23T05:26:15.910Z,1010.85
2022-10-23T05:27:16.064Z,1010.84
2022-10-23T05:28:16.226Z,1010.83
2022-10-23T05:29:16.382Z,1010.78
2022-10-23T05:30:16.542Z,1010.81
2022-10-23T05:31:16.768Z,1010.81
2022-10-23T05:32:17.053Z,1010.84
2022-10-23T05:33:17.132Z,1010.85
2022-10-23T05:34:17.300Z,1010.85
2022-10-23T05:35:17.452Z,1010.84
2022-10-23T05:36:17.631Z,1010.88
2022-10-23T05:37:17.779Z,1010.86
2022-10-23T05:38:17.948Z,1010.88
2022-10-23T05:39:18.100Z,1010.86
2022-10-23T05:40:18.296Z,1010.88
2022-10-23T05:41:18.463Z,1010.88
2022-10-23T05:42:18.632Z,1010.90
2022-10-23T05:43:18.793Z,1010.90
2022-10-23T05:44:18.958Z,1010.88
2022-10-23T05:45:19.117Z,1010.91
2022-10-23T05:46:19.302Z,1010.94
2022-10-23T05:47:19.469Z,1010.93
2022-10-23T05:48:33.438Z,1010.96
2022-10-23T05:49:20.742Z,1010.96
2022-10-23T05:50:19.894Z,1010.99
2022-10-23T05:51:20.083Z,1011.02
2022-10-23T05:52:20.231Z,1010.98
2022-10-23T05:53:20.390Z,1011.06
2022-10-23T05:54:20.541Z,1011.01
2022-10-23T05:55:20.708Z,1011.00
2022-10-23T05:56:20.900Z,1011.04
2022-10-23T05:57:21.047Z,1010.95
2022-10-23T05:58:21.212Z,1010.94
2022-10-23T05:59:23.069Z,1010.97
2022-10-23T06:00:21.526Z,1010.99
2022-10-23T06:01:21.806Z,1010.96
2022-10-23T06:02:21.874Z,1010.92
2022-10-23T06:03:22.018Z,1010.92
2022-10-23T06:04:22.180Z,1010.90
2022-10-23T06:05:22.357Z,1010.88
2022-10-23T06:06:22.536Z,1010.85
2022-10-23T06:07:22.693Z,1010.85
2022-10-23T06:08:22.855Z,1010.87
2022-10-23T06:09:23.005Z,1010.85
2022-10-23T06:10:23.170Z,1010.85
2022-10-23T06:11:23.340Z,1010.83
2022-10-23T06:12:23.494Z,1010.85
2022-10-23T06:13:23.650Z,1010.86
2022-10-23T06:14:23.815Z,1010.88
2022-10-23T06:15:23.975Z,1010.89
2022-10-23T06:16:24.155Z,1010.90
2022-10-23T06:17:24.307Z,1010.92
2022-10-23T06:18:24.466Z,1010.89
2022-10-23T06:19:24.616Z,1010.88
2022-10-23T06:20:27.907Z,1010.85
2022-10-23T06:21:25.024Z,1010.83
2022-10-23T06:22:25.191Z,1010.78
2022-10-23T06:23:25.366Z,1010.83
2022-10-23T06:24:25.547Z,1010.79
2022-10-23T06:25:25.697Z,1010.78
2022-10-23T06:26:25.892Z,1010.77
2022-10-23T06:27:26.066Z,1010.79
2022-10-23T06:28:26.268Z,1010.79
2022-10-23T06:29:26.453Z,1010.81
2022-10-23T06:30:26.701Z,1010.76
2022-10-23T06:31:26.931Z,1010.73
2022-10-23T06:32:26.925Z,1010.72
2022-10-23T06:33:27.141Z,1010.75
2022-10-23T06:34:27.300Z,1010.76
2022-10-23T06:35:27.480Z,1010.77
2022-10-23T06:36:27.690Z,1010.77
2022-10-23T06:37:27.755Z,1010.75
2022-10-23T06:38:27.900Z,1010.77
2022-10-23T06:39:29.897Z,1010.80
2022-10-23T06:40:28.364Z,1010.79
2022-10-23T06:41:28.453Z,1010.77
2022-10-23T06:42:28.612Z,1010.77
2022-10-23T06:43:28.769Z,1010.84
2022-10-23T06:44:28.934Z,1010.89
2022-10-23T06:45:29.096Z,1010.97
2022-10-23T06:46:29.291Z,1010.91
2022-10-23T06:47:29.439Z,1010.95
2022-10-23T06:48:29.611Z,1010.93
2022-10-23T06:49:29.798Z,1010.97
2022-10-23T06:50:29.967Z,1011.00
2022-10-23T06:51:30.165Z,1010.99
2022-10-23T06:52:45.787Z,1010.98
2022-10-23T06:53:31.426Z,1011.00
2022-10-23T06:54:30.598Z,1011.04
2022-10-23T06:55:30.788Z,1011.02
2022-10-23T06:56:30.951Z,1011.03
2022-10-23T06:57:31.128Z,1011.04
2022-10-23T06:58:31.289Z,1011.04
2022-10-23T06:59:31.437Z,1011.05
2022-10-23T07:00:31.668Z,1011.05
2022-10-23T07:01:31.918Z,1011.04
2022-10-23T07:02:31.837Z,1011.03
2022-10-23T07:03:32.007Z,1011.02
2022-10-23T07:04:32.159Z,1010.99
2022-10-23T07:05:32.306Z,1010.96
2022-10-23T07:06:32.498Z,1010.94
2022-10-23T07:07:32.650Z,1010.92
2022-10-23T07:08:32.837Z,1010.94
2022-10-23T07:09:32.977Z,1010.92
2022-10-23T07:10:33.134Z,1010.92
2022-10-23T07:11:33.298Z,1010.92
2022-10-23T07:12:33.446Z,1010.94
2022-10-23T07:13:33.578Z,1010.98
2022-10-23T07:14:33.706Z,1010.95
2022-10-23T07:15:34.717Z,1010.97
2022-10-23T07:16:33.946Z,1010.98
2022-10-23T07:17:34.098Z,1011.04
2022-10-23T07:19:34.345Z,1011.03
2022-10-23T07:20:34.478Z,1010.97
2022-10-23T07:21:34.658Z,1010.95
2022-10-23T07:22:34.785Z,1010.95
2022-10-23T07:23:34.930Z,1010.98
2022-10-23T07:24:35.054Z,1010.97
2022-10-23T07:25:35.200Z,1010.98
2022-10-23T07:26:35.404Z,1010.96
2022-10-23T07:27:35.441Z,1010.98
2022-10-23T07:28:35.564Z,1011.00
2022-10-23T07:29:35.703Z,1010.97
2022-10-23T07:30:35.844Z,1010.93
2022-10-23T07:31:36.035Z,1010.90
2022-10-23T07:32:36.065Z,1010.91
2022-10-23T07:33:36.202Z,1010.88
2022-10-23T07:34:36.418Z,1010.91
2022-10-23T07:35:38.571Z,1010.98
2022-10-23T07:36:36.622Z,1010.92
2022-10-23T07:37:36.754Z,1010.97
2022-10-23T07:38:36.885Z,1010.95
2022-10-23T07:39:37.019Z,1010.98
2022-10-23T07:40:37.181Z,1010.95
2022-10-23T07:41:37.340Z,1010.97
2022-10-23T07:42:37.466Z,1010.94
2022-10-23T07:43:37.611Z,1010.91
2022-10-23T07:44:37.719Z,1010.90
2022-10-23T07:45:37.863Z,1010.90
2022-10-23T07:46:37.999Z,1010.91
2022-10-23T07:47:38.123Z,1010.93
2022-10-23T07:48:38.240Z,1010.88
2022-10-23T07:49:38.350Z,1010.91
2022-10-23T07:50:38.469Z,1010.88
2022-10-23T07:51:38.600Z,1010.90
2022-10-23T07:52:38.721Z,1010.85
2022-10-23T07:53:38.840Z,1010.88
2022-10-23T07:54:38.952Z,1010.86
2022-10-23T07:55:39.064Z,1010.89
2022-10-23T07:56:39.201Z,1010.87
2022-10-23T07:57:39.307Z,1010.89
2022-10-23T07:58:39.415Z,1010.84
2022-10-23T07:59:39.517Z,1010.84
2022-10-23T08:00:39.624Z,1010.77
2022-10-23T08:01:39.890Z,1010.78
2022-10-23T08:02:39.885Z,1010.82
2022-10-23T08:03:39.910Z,1010.82
2022-10-23T08:04:40.015Z,1010.82
2022-10-23T08:05:40.118Z,1010.87
2022-10-23T08:06:40.229Z,1010.82
2022-10-23T08:07:40.327Z,1010.85
2022-10-23T08:08:40.447Z,1010.81
2022-10-23T08:09:40.521Z,1010.81
2022-10-23T08:10:40.609Z,1010.84
2022-10-23T08:11:40.732Z,1010.83
2022-10-23T08:12:41.109Z,1010.82
2022-10-23T08:13:40.974Z,1010.80
2022-10-23T08:14:41.055Z,1010.83
2022-10-23T08:15:41.142Z,1010.83
2022-10-23T08:16:41.251Z,1010.83
2022-10-23T08:17:41.716Z,1010.81
2022-10-23T08:18:41.472Z,1010.75
2022-10-23T08:19:41.612Z,1010.74
2022-10-23T08:20:41.589Z,1010.73
2022-10-23T08:21:41.705Z,1010.75
2022-10-23T08:22:41.781Z,1010.74
2022-10-23T08:23:41.883Z,1010.75
2022-10-23T08:24:41.949Z,1010.77
2022-10-23T08:25:42.030Z,1010.76
2022-10-23T08:26:42.120Z,1010.82
2022-10-23T08:27:42.675Z,1010.83
2022-10-23T08:28:42.313Z,1010.80
2022-10-23T08:29:42.406Z,1010.77
2022-10-23T08:30:42.481Z,1010.82
2022-10-23T08:31:42.594Z,1010.79
2022-10-23T08:32:42.676Z,1010.80
2022-10-23T08:33:42.803Z,1010.80
2022-10-23T08:34:42.865Z,1010.80
2022-10-23T08:35:42.936Z,1010.77
2022-10-23T08:36:43.035Z,1010.83
2022-10-23T08:37:43.312Z,1010.85
2022-10-23T08:38:43.215Z,1010.81
2022-10-23T08:39:43.296Z,1010.84
2022-10-23T08:40:43.364Z,1010.80
2022-10-23T08:41:43.482Z,1010.80
2022-10-23T08:42:43.747Z,1010.76
2022-10-23T08:43:43.591Z,1010.74
2022-10-23T08:44:43.665Z,1010.74
2022-10-23T08:45:43.730Z,1010.76
2022-10-23T08:46:43.800Z,1010.76
2022-10-23T08:47:43.869Z,1010.76
2022-10-23T08:48:43.923Z,1010.74
2022-10-23T08:49:43.984Z,1010.73
2022-10-23T08:50:44.075Z,1010.70
2022-10-23T08:51:44.130Z,1010.71
2022-10-23T08:52:44.474Z,1010.74
2022-10-23T08:53:44.190Z,1010.67
2022-10-23T08:54:44.264Z,1010.67
2022-10-23T08:55:44.329Z,1010.69
2022-10-23T08:56:44.420Z,1010.68
2022-10-23T08:57:44.476Z,1010.64
2022-10-23T08:58:44.583Z,1010.63
2022-10-23T08:59:44.643Z,1010.61
2022-10-23T09:00:44.788Z,1010.58
2022-10-23T09:01:44.881Z,1010.64
2022-10-23T09:02:45.074Z,1010.60
2022-10-23T09:03:44.756Z,1010.61
2022-10-23T09:04:44.817Z,1010.63
2022-10-23T09:05:44.870Z,1010.61
2022-10-23T09:06:45.052Z,1010.64
2022-10-23T09:07:45.277Z,1010.69
2022-10-23T09:08:45.037Z,1010.70
2022-10-23T09:09:45.085Z,1010.68
2022-10-23T09:10:46.993Z,1010.64
2022-10-23T09:11:45.210Z,1010.68
2022-10-23T09:12:45.322Z,1010.67
2022-10-23T09:13:45.272Z,1010.74
2022-10-23T09:14:45.330Z,1010.69
2022-10-23T09:15:45.377Z,1010.65
2022-10-23T09:16:45.479Z,1010.61
2022-10-23T09:17:45.780Z,1010.62
2022-10-23T09:18:45.547Z,1010.60
2022-10-23T09:19:45.483Z,1010.66
2022-10-23T09:20:45.565Z,1010.56
2022-10-23T09:21:45.547Z,1010.58
2022-10-23T09:22:45.629Z,1010.54
2022-10-23T09:23:45.441Z,1010.56
2022-10-23T09:24:45.492Z,1010.51
2022-10-23T09:25:45.527Z,1010.58
2022-10-23T09:26:45.642Z,1010.54
2022-10-23T09:27:45.806Z,1010.51
2022-10-23T09:28:45.627Z,1010.58
2022-10-23T09:29:45.678Z,1010.50
2022-10-23T09:30:45.712Z,1010.46
2022-10-23T09:31:45.862Z,1010.52
2022-10-23T09:32:45.782Z,1010.51
2022-10-23T09:33:45.822Z,1010.47
2022-10-23T09:34:45.859Z,1010.54
2022-10-23T09:35:45.892Z,1010.59
2022-10-23T09:36:46.036Z,1010.52
2022-10-23T09:37:46.083Z,1010.50
2022-10-23T09:38:45.956Z,1010.50
2022-10-23T09:39:45.996Z,1010.59
2022-10-23T09:40:46.064Z,1010.54
2022-10-23T09:41:46.007Z,1010.54
2022-10-23T09:42:46.090Z,1010.56
2022-10-23T09:43:46.020Z,1010.54
2022-10-23T09:44:46.049Z,1010.53
2022-10-23T09:45:46.074Z,1010.49
2022-10-23T09:46:46.158Z,1010.55
2022-10-23T09:47:46.160Z,1010.54
2022-10-23T09:48:46.109Z,1010.58
2022-10-23T09:49:46.133Z,1010.57
2022-10-23T09:50:46.164Z,1010.49
2022-10-23T09:51:46.979Z,1010.50
2022-10-23T09:52:46.129Z,1010.43
2022-10-23T09:53:46.159Z,1010.47
2022-10-23T09:54:46.182Z,1010.40
2022-10-23T09:55:46.301Z,1010.40
2022-10-23T09:56:46.200Z,1010.43
2022-10-23T09:57:46.514Z,1010.46
2022-10-23T09:58:46.442Z,1010.40
2022-10-23T09:59:46.302Z,1010.43
2022-10-23T10:00:46.243Z,1010.37
2022-10-23T10:01:46.376Z,1010.35
2022-10-23T10:02:46.404Z,1010.34
2022-10-23T10:03:46.199Z,1010.36
2022-10-23T10:04:46.210Z,1010.33
2022-10-23T10:05:46.235Z,1010.34
2022-10-23T10:06:46.250Z,1010.32
2022-10-23T10:07:46.306Z,1010.35
2022-10-23T10:08:46.245Z,1010.38
2022-10-23T10:09:46.151Z,1010.35
2022-10-23T10:10:46.151Z,1010.36
2022-10-23T10:11:46.166Z,1010.34
2022-10-23T10:12:46.180Z,1010.36
2022-10-23T10:13:46.191Z,1010.34
2022-10-23T10:14:46.212Z,1010.35
2022-10-23T10:15:46.225Z,1010.30
2022-10-23T10:16:46.246Z,1010.31
2022-10-23T10:17:46.371Z,1010.29
2022-10-23T10:18:46.375Z,1010.29
2022-10-23T10:19:46.277Z,1010.25
2022-10-23T10:20:46.290Z,1010.24
2022-10-23T10:21:46.291Z,1010.22
2022-10-23T10:22:46.310Z,1010.25
2022-10-23T10:23:46.313Z,1010.29
2022-10-23T10:24:46.318Z,1010.15
2022-10-23T10:25:51.302Z,1010.10
2022-10-23T10:26:47.278Z,1010.17
2022-10-23T10:27:46.459Z,1010.15
2022-10-23T10:28:46.248Z,1010.10
2022-10-23T10:29:46.257Z,1010.12
2022-10-23T10:30:46.265Z,1010.14
2022-10-23T10:31:49.437Z,1010.10
2022-10-23T10:32:47.242Z,1010.14
2022-10-23T10:33:46.274Z,1010.11
2022-10-23T10:34:46.289Z,1010.11
2022-10-23T10:35:46.306Z,1010.13
2022-10-23T10:36:46.317Z,1010.20
2022-10-23T10:37:49.316Z,1010.16
2022-10-23T10:38:46.349Z,1010.13
2022-10-23T10:39:46.390Z,1010.06
2022-10-23T10:40:46.304Z,1010.05
2022-10-23T10:41:46.326Z,1010.04
2022-10-23T10:42:46.324Z,1010.08
2022-10-23T10:43:46.342Z,1010.07
2022-10-23T10:44:46.349Z,1010.07
2022-10-23T10:45:46.367Z,1010.05
2022-10-23T10:46:46.373Z,1010.06
2022-10-23T10:47:46.400Z,1010.03
2022-10-23T10:48:46.403Z,1010.06
2022-10-23T10:49:46.409Z,1010.08
2022-10-23T10:50:46.417Z,1010.02
2022-10-23T10:51:46.433Z,1010.01
2022-10-23T10:52:49.094Z,1009.97
2022-10-23T10:53:46.430Z,1009.90
2022-10-23T10:54:46.440Z,1009.94
2022-10-23T10:55:46.445Z,1009.99
2022-10-23T10:56:46.461Z,1009.99
2022-10-23T10:57:46.700Z,1009.87
2022-10-23T10:58:46.411Z,1009.90
2022-10-23T10:59:46.432Z,1009.86
2022-10-23T11:00:46.464Z,1009.76
2022-10-23T11:01:46.553Z,1009.73
2022-10-23T11:02:46.537Z,1009.68
2022-10-23T11:03:46.570Z,1009.71
2022-10-23T11:04:46.601Z,1009.72
2022-10-23T11:05:46.670Z,1009.69
2022-10-23T11:06:46.591Z,1009.60
2022-10-23T11:07:46.758Z,1009.67
2022-10-23T11:08:56.459Z,1009.63
2022-10-23T11:09:47.592Z,1009.57
2022-10-23T11:10:46.628Z,1009.61
2022-10-23T11:11:46.674Z,1009.59
2022-10-23T11:12:46.725Z,1009.59
2022-10-23T11:13:46.769Z,1009.54
2022-10-23T11:14:46.807Z,1009.50
2022-10-23T11:15:46.883Z,1009.43
2022-10-23T11:16:46.826Z,1009.46
2022-10-23T11:17:46.878Z,1009.43
2022-10-23T11:18:46.920Z,1009.46
2022-10-23T11:19:46.951Z,1009.44
2022-10-23T11:20:46.993Z,1009.47
2022-10-23T11:21:47.044Z,1009.51
2022-10-23T11:22:47.090Z,1009.47
2022-10-23T11:23:47.141Z,1009.39
2022-10-23T11:24:49.463Z,1009.44
2022-10-23T11:25:47.186Z,1009.46
2022-10-23T11:26:47.234Z,1009.44
2022-10-23T11:27:47.309Z,1009.45
2022-10-23T11:28:47.354Z,1009.45
2022-10-23T11:29:47.420Z,1009.38
2022-10-23T11:30:47.475Z,1009.33
2022-10-23T11:31:47.538Z,1009.36
2022-10-23T11:32:47.592Z,1009.31
2022-10-23T11:33:47.645Z,1009.25
2022-10-23T11:34:47.710Z,1009.23
2022-10-23T11:35:47.775Z,1009.23
2022-10-23T11:36:47.821Z,1009.19
2022-10-23T11:37:47.885Z,1009.18
2022-10-23T11:38:47.927Z,1009.20
2022-10-23T11:39:47.955Z,1009.14
2022-10-23T11:40:48.082Z,1009.13
2022-10-23T11:41:48.036Z,1009.18
2022-10-23T11:42:48.125Z,1009.16
2022-10-23T11:43:48.036Z,1009.15
2022-10-23T11:44:48.078Z,1009.13
2022-10-23T11:45:48.113Z,1009.16
2022-10-23T11:46:48.146Z,1009.09
2022-10-23T11:47:48.285Z,1009.10
2022-10-23T11:48:48.199Z,1009.09
2022-10-23T11:49:48.245Z,1009.07
2022-10-23T11:50:48.296Z,1009.05
2022-10-23T11:51:48.335Z,1009.01
2022-10-23T11:52:50.620Z,1008.94
2022-10-23T11:53:48.419Z,1008.93
2022-10-23T11:54:48.457Z,1008.92
2022-10-23T11:55:48.485Z,1008.92
2022-10-23T11:56:48.524Z,1008.93
2022-10-23T11:57:48.591Z,1008.89
2022-10-23T11:58:48.694Z,1008.89
2022-10-23T11:59:48.634Z,1008.89
2022-10-23T12:00:48.692Z,1008.86
2022-10-23T12:01:48.916Z,1008.88
2022-10-23T12:02:48.810Z,1008.91
2022-10-23T12:03:48.765Z,1008.95
2022-10-23T12:04:48.822Z,1008.93
2022-10-23T12:05:48.898Z,1008.91
2022-10-23T12:06:48.920Z,1008.88
2022-10-23T12:07:48.977Z,1008.90
2022-10-23T12:08:49.016Z,1008.90